Time;durP1;ratioP1;P1;durP2;ratioP2;P2;SDS_P1;SDS_P2;PMS_P1;PMS_P2;Temp;Humidity;BMP_temperature;BMP_pressure;BME280_temperature;BME280_humidity;BME280_pressure;Samples;Min_cycle;Max_cycle;Signal;HPM_P1;HPM_P2
2022/04/04 00:00:46;;;;;;;5.82;1.38;;;1.80;99.90;;;;;;4954770;28;20462;-73
2022/04/04 00:03:13;;;;;;;0.08;0.08;;;1.70;99.90;;;;;;4954463;28;20442;-74
2022/04/04 00:05:39;;;;;;;2.17;1.42;;;1.70;99.90;;;;;;4954721;28;20055;-74
2022/04/04 00:08:06;;;;;;;0.90;0.65;;;1.70;99.90;;;;;;4969540;28;20038;-73
2022/04/04 00:10:32;;;;;;;0.55;0.55;;;1.70;99.90;;;;;;4954495;28;20110;-73
2022/04/04 00:12:57;;;;;;;0.63;0.63;;;1.70;99.90;;;;;;4954813;28;20059;-73
2022/04/04 00:15:23;;;;;;;0.65;0.63;;;1.70;99.90;;;;;;4953451;28;20058;-73
2022/04/04 00:17:50;;;;;;;0.52;0.32;;;1.60;99.90;;;;;;4971903;28;20331;-73
2022/04/04 00:20:16;;;;;;;0.88;0.80;;;1.70;99.90;;;;;;4954772;28;20495;-73
2022/04/04 00:22:42;;;;;;;1.55;1.45;;;1.70;99.90;;;;;;4954653;28;20537;-73
2022/04/04 00:25:08;;;;;;;0.25;0.25;;;1.60;99.90;;;;;;4954617;28;20027;-74
2022/04/04 00:27:34;;;;;;;1.35;0.85;;;1.50;99.90;;;;;;4954937;28;20495;-73
2022/04/04 00:30:00;;;;;;;0.17;0.17;;;1.50;99.90;;;;;;4954654;28;20023;-74
2022/04/04 00:32:26;;;;;;;0.47;0.32;;;1.50;99.90;;;;;;4953866;28;20031;-73
2022/04/04 00:34:52;;;;;;;0.10;0.10;;;1.40;99.90;;;;;;4963691;28;20050;-74
2022/04/04 00:37:18;;;;;;;0.05;0.05;;;1.40;99.90;;;;;;4973660;28;20034;-73
2022/04/04 00:39:43;;;;;;;0.85;0.43;;;1.30;99.90;;;;;;4973783;28;20057;-73
2022/04/04 00:42:09;;;;;;;0.38;0.35;;;1.30;99.90;;;;;;4974020;28;20478;-74
2022/04/04 00:44:35;;;;;;;0.35;0.35;;;1.20;99.90;;;;;;4973823;28;20043;-73
2022/04/04 00:47:01;;;;;;;0.20;0.20;;;1.10;99.90;;;;;;4972344;28;20041;-73
2022/04/04 00:49:27;;;;;;;0.13;0.10;;;1.20;99.90;;;;;;4973588;28;20054;-73
2022/04/04 00:51:53;;;;;;;0.85;0.55;;;1.10;99.90;;;;;;4973719;28;20081;-73
2022/04/04 00:54:19;;;;;;;3.15;0.60;;;1.10;99.90;;;;;;4973199;28;20058;-73
2022/04/04 00:56:46;;;;;;;0.28;0.28;;;1.10;99.90;;;;;;4973663;28;20101;-74
2022/04/04 00:59:17;;;;;;;1.10;0.57;;;1.10;99.90;;;;;;4973454;28;20386;-73
2022/04/04 01:01:43;;;;;;;1.00;0.43;;;1.10;99.90;;;;;;4972245;28;20406;-73
2022/04/04 01:04:11;;;;;;;0.10;0.10;;;1.10;99.90;;;;;;4974815;28;20023;-73
2022/04/04 01:06:38;;;;;;;0.38;0.38;;;1.00;99.90;;;;;;4977014;28;20038;-73
2022/04/04 01:09:04;;;;;;;0.15;0.15;;;1.00;99.90;;;;;;4975172;28;20019;-74
2022/04/04 01:11:30;;;;;;;0.85;0.85;;;0.90;99.90;;;;;;4976923;28;20033;-73
2022/04/04 01:13:55;;;;;;;1.15;0.60;;;0.90;99.90;;;;;;4976108;28;20034;-74
2022/04/04 01:16:21;;;;;;;0.05;0.05;;;0.90;99.90;;;;;;4976960;28;20394;-73
2022/04/04 01:18:47;;;;;;;0.10;0.10;;;0.90;99.90;;;;;;4976351;28;20564;-73
2022/04/04 01:21:17;;;;;;;0.17;0.17;;;0.90;99.90;;;;;;4976286;28;20030;-74
2022/04/04 01:23:43;;;;;;;0.45;0.45;;;0.90;99.90;;;;;;4976797;28;20023;-74
2022/04/04 01:26:13;;;;;;;0.22;0.22;;;0.90;99.90;;;;;;4976615;28;20027;-73
2022/04/04 01:28:40;;;;;;;0.00;0.00;;;0.80;99.90;;;;;;4976524;28;20426;-73
2022/04/04 01:31:07;;;;;;;1.17;0.52;;;0.80;99.90;;;;;;4976883;28;20019;-74
2022/04/04 01:33:33;;;;;;;0.63;0.63;;;0.80;99.90;;;;;;4995089;28;20078;-72
2022/04/04 01:35:59;;;;;;;0.00;0.00;;;0.80;99.90;;;;;;4977985;28;20027;-74
2022/04/04 01:38:26;;;;;;;0.57;0.40;;;0.80;99.90;;;;;;4976482;28;20102;-74
2022/04/04 01:40:52;;;;;;;0.88;0.88;;;0.80;99.90;;;;;;4976781;28;20026;-74
2022/04/04 01:43:18;;;;;;;0.35;0.35;;;0.80;99.90;;;;;;4976200;28;20382;-73
2022/04/04 01:48:35;;;;;;;0.52;0.52;;;0.80;99.90;;;;;;4976242;28;20166;-74
2022/04/04 01:51:00;;;;;;;0.08;0.08;;;0.80;99.90;;;;;;4976276;28;20109;-74
2022/04/04 01:53:26;;;;;;;0.13;0.13;;;0.70;99.90;;;;;;4976080;28;20561;-73
2022/04/04 01:55:54;;;;;;;0.22;0.22;;;0.80;99.90;;;;;;4976007;28;20125;-73
2022/04/04 01:58:20;;;;;;;0.00;0.00;;;0.70;99.90;;;;;;4963756;28;20031;-73
2022/04/04 02:00:45;;;;;;;0.00;0.00;;;0.70;99.90;;;;;;4971063;28;20034;-74
2022/04/04 02:03:11;;;;;;;0.45;0.45;;;0.80;99.90;;;;;;4955954;28;20050;-74
2022/04/04 02:05:37;;;;;;;0.28;0.28;;;0.70;99.90;;;;;;4956740;28;20398;-73
2022/04/04 02:08:05;;;;;;;0.22;0.22;;;0.80;99.90;;;;;;4956839;28;20019;-73
2022/04/04 02:10:31;;;;;;;0.00;0.00;;;0.80;99.90;;;;;;4956672;28;20098;-74
2022/04/04 02:12:57;;;;;;;0.10;0.10;;;0.80;99.90;;;;;;4956732;28;20027;-74
2022/04/04 02:15:23;;;;;;;0.10;0.10;;;0.80;99.90;;;;;;4955982;28;20041;-74
2022/04/04 02:17:50;;;;;;;0.85;0.63;;;0.80;99.90;;;;;;4955950;28;20027;-73
2022/04/04 02:20:16;;;;;;;0.20;0.20;;;0.80;99.90;;;;;;4956155;28;20078;-74
2022/04/04 02:22:42;;;;;;;1.25;0.55;;;0.80;99.90;;;;;;4955944;28;20439;-74
2022/04/04 02:25:08;;;;;;;0.20;0.20;;;0.80;99.90;;;;;;4956236;28;20105;-74
2022/04/04 02:27:34;;;;;;;0.68;0.68;;;0.70;99.90;;;;;;4956434;28;20047;-73
2022/04/04 02:30:00;;;;;;;0.10;0.10;;;0.70;99.90;;;;;;4971124;28;20027;-73
2022/04/04 02:32:26;;;;;;;0.40;0.40;;;0.60;99.90;;;;;;4956389;28;20037;-74
2022/04/04 02:34:52;;;;;;;0.45;0.45;;;0.60;99.90;;;;;;4956127;28;20019;-74
2022/04/04 02:37:18;;;;;;;0.00;0.00;;;0.60;99.90;;;;;;4963083;28;20098;-74
2022/04/04 02:39:44;;;;;;;0.35;0.35;;;0.50;99.90;;;;;;4975595;28;20027;-74
2022/04/04 02:42:10;;;;;;;3.50;0.77;;;0.50;99.90;;;;;;4975369;28;20038;-73
2022/04/04 02:44:36;;;;;;;0.47;0.20;;;0.50;99.90;;;;;;4975347;28;20027;-73
2022/04/04 02:47:01;;;;;;;0.22;0.22;;;0.50;99.90;;;;;;4975495;28;20053;-74
2022/04/04 02:49:29;;;;;;;0.47;0.47;;;0.40;99.90;;;;;;4975067;28;20023;-73
2022/04/04 02:51:55;;;;;;;0.10;0.10;;;0.40;99.90;;;;;;4974951;28;20041;-74
2022/04/04 02:54:21;;;;;;;0.75;0.70;;;0.30;99.90;;;;;;4974358;28;20056;-73
2022/04/04 02:56:47;;;;;;;0.35;0.35;;;0.40;99.90;;;;;;4975040;28;20569;-74
2022/04/04 02:59:13;;;;;;;0.65;0.65;;;0.30;99.90;;;;;;4955657;28;20023;-73
2022/04/04 03:01:38;;;;;;;0.10;0.10;;;0.30;99.90;;;;;;4955896;28;20027;-73
2022/04/04 03:04:04;;;;;;;0.10;0.10;;;0.30;99.90;;;;;;4955361;28;20078;-74
2022/04/04 03:06:30;;;;;;;0.45;0.45;;;0.40;99.90;;;;;;4955594;28;20046;-74
2022/04/04 03:08:56;;;;;;;0.00;0.00;;;0.30;99.90;;;;;;4955677;28;20483;-73
2022/04/04 03:11:22;;;;;;;0.13;0.13;;;0.30;99.90;;;;;;4955368;28;20437;-73
2022/04/04 03:13:48;;;;;;;0.32;0.32;;;0.30;99.90;;;;;;4955288;28;20027;-74
2022/04/04 03:16:14;;;;;;;0.00;0.00;;;0.20;99.90;;;;;;4955584;28;20066;-74
2022/04/04 03:18:40;;;;;;;0.00;0.00;;;0.20;99.90;;;;;;4954981;28;20051;-74
2022/04/04 03:21:07;;;;;;;0.17;0.17;;;0.20;99.90;;;;;;4955548;28;20066;-73
2022/04/04 03:23:34;;;;;;;0.15;0.10;;;0.20;99.90;;;;;;4955067;28;20023;-73
2022/04/04 03:26:01;;;;;;;0.13;0.13;;;0.20;99.90;;;;;;4955278;28;20030;-74
2022/04/04 03:28:26;;;;;;;0.68;0.68;;;0.10;99.90;;;;;;4953704;28;20558;-73
2022/04/04 03:30:53;;;;;;;5.07;1.65;;;0.10;99.90;;;;;;4955632;28;20055;-74
2022/04/04 03:33:19;;;;;;;0.43;0.43;;;0.00;99.90;;;;;;4954916;28;20438;-74
2022/04/04 03:35:45;;;;;;;0.35;0.35;;;0.10;99.90;;;;;;4955214;28;20098;-73
2022/04/04 03:38:11;;;;;;;1.13;0.38;;;0.00;99.90;;;;;;4968966;28;20034;-74
2022/04/04 03:40:38;;;;;;;0.47;0.40;;;0.00;99.90;;;;;;4974477;28;20508;-74
2022/04/04 03:43:04;;;;;;;0.00;0.00;;;-0.10;99.90;;;;;;4974686;28;20054;-74
2022/04/04 03:45:31;;;;;;;0.47;0.47;;;-0.10;99.90;;;;;;4974326;28;20031;-74
2022/04/04 03:47:58;;;;;;;0.65;0.55;;;-0.10;99.90;;;;;;4974241;28;20092;-73
2022/04/04 03:50:25;;;;;;;0.75;0.70;;;-0.20;99.90;;;;;;4973988;28;20073;-73
2022/04/04 03:52:52;;;;;;;3.30;1.55;;;-0.20;99.90;;;;;;4973904;28;20449;-73
2022/04/04 03:55:18;;;;;;;0.00;0.00;;;-0.30;99.90;;;;;;4973882;28;20090;-73
2022/04/04 03:57:45;;;;;;;0.20;0.20;;;-0.30;99.90;;;;;;4967129;28;20031;-74
2022/04/04 04:00:12;;;;;;;0.10;0.10;;;-0.30;99.90;;;;;;4954762;28;20031;-73
2022/04/04 04:02:38;;;;;;;0.55;0.55;;;-0.30;99.90;;;;;;4954141;28;20039;-73
2022/04/04 04:05:04;;;;;;;0.22;0.22;;;-0.30;99.90;;;;;;4955366;28;20494;-73
2022/04/04 04:07:30;;;;;;;0.10;0.10;;;-0.30;99.90;;;;;;4954842;28;20118;-73
2022/04/04 04:09:56;;;;;;;1.38;0.55;;;-0.30;99.90;;;;;;4954489;28;20069;-74
2022/04/04 04:12:23;;;;;;;0.22;0.20;;;-0.20;99.90;;;;;;4968912;28;20127;-74
2022/04/04 04:14:51;;;;;;;1.70;0.95;;;-0.20;99.90;;;;;;4954461;28;20027;-74
2022/04/04 04:17:18;;;;;;;1.48;0.73;;;-0.30;99.90;;;;;;4954990;28;20130;-74
2022/04/04 04:22:30;;;;;;;0.00;0.00;;;-0.30;99.90;;;;;;4954459;29;20045;-74
2022/04/04 04:24:56;;;;;;;1.30;1.20;;;-0.30;99.90;;;;;;4968860;28;20031;-74
2022/04/04 04:27:22;;;;;;;1.20;1.10;;;-0.40;99.90;;;;;;4970768;28;20030;-72
2022/04/04 04:29:47;;;;;;;0.28;0.28;;;-0.50;99.90;;;;;;4955733;28;20538;-73
2022/04/04 04:32:13;;;;;;;0.00;0.00;;;-0.50;99.90;;;;;;4969368;28;20079;-73
2022/04/04 04:34:39;;;;;;;0.65;0.65;;;-0.60;99.90;;;;;;4954418;28;20045;-74
2022/04/04 04:37:05;;;;;;;3.25;1.27;;;-0.60;99.90;;;;;;4959373;28;20086;-74
2022/04/04 04:39:31;;;;;;;0.00;0.00;;;-0.60;99.90;;;;;;4976163;28;20030;-73
2022/04/04 04:41:57;;;;;;;0.03;0.03;;;-0.70;99.90;;;;;;4976386;28;20405;-73
2022/04/04 04:44:23;;;;;;;0.80;0.80;;;-0.70;99.90;;;;;;4977485;28;20114;-74
2022/04/04 04:46:49;;;;;;;0.35;0.32;;;-0.80;99.90;;;;;;4977638;28;20035;-74
2022/04/04 04:49:16;;;;;;;0.28;0.28;;;-0.80;99.90;;;;;;4977365;28;20448;-74
2022/04/04 04:51:42;;;;;;;7.90;3.47;;;-0.70;99.90;;;;;;4977114;28;20109;-74
2022/04/04 04:54:09;;;;;;;0.25;0.25;;;-0.80;99.90;;;;;;4977032;28;20062;-74
2022/04/04 04:56:35;;;;;;;0.00;0.00;;;-0.80;99.90;;;;;;4977525;28;20076;-73
2022/04/04 04:59:02;;;;;;;42.83;1.50;;;-0.80;99.90;;;;;;4966053;28;20092;-73
2022/04/04 05:01:28;;;;;;;1.52;1.42;;;-0.80;99.90;;;;;;4977326;28;20035;-74
2022/04/04 05:03:53;;;;;;;2.38;0.82;;;-0.80;99.90;;;;;;4976956;28;20402;-74
2022/04/04 05:06:19;;;;;;;1.00;0.90;;;-0.80;99.90;;;;;;4976948;28;20030;-74
2022/04/04 05:08:45;;;;;;;0.45;0.45;;;-0.80;99.90;;;;;;4976854;28;20034;-73
2022/04/04 05:11:11;;;;;;;0.93;0.93;;;-0.80;99.90;;;;;;4976805;28;20027;-74
2022/04/04 05:13:36;;;;;;;0.10;0.10;;;-0.80;99.90;;;;;;4976324;28;20114;-73
2022/04/04 05:16:04;;;;;;;8.77;0.65;;;-0.80;99.90;;;;;;4976898;28;20054;-74
2022/04/04 05:18:30;;;;;;;0.47;0.35;;;-0.80;99.90;;;;;;4976172;28;20486;-74
2022/04/04 05:20:56;;;;;;;0.00;0.00;;;-0.80;99.90;;;;;;4976711;28;20082;-73
2022/04/04 05:23:22;;;;;;;2.83;0.13;;;-0.90;99.90;;;;;;4976184;28;20035;-73
2022/04/04 05:25:48;;;;;;;0.10;0.10;;;-0.90;99.90;;;;;;4976439;28;20031;-73
2022/04/04 05:28:14;;;;;;;0.13;0.13;;;-1.00;99.90;;;;;;4976390;28;20027;-74
2022/04/04 05:30:41;;;;;;;0.00;0.00;;;-0.90;99.90;;;;;;4974903;28;20022;-74
2022/04/04 05:33:09;;;;;;;3.03;1.35;;;-1.00;99.90;;;;;;4976215;28;20513;-73
2022/04/04 05:35:35;;;;;;;0.17;0.10;;;-0.90;99.90;;;;;;4974416;28;20030;-73
2022/04/04 05:38:00;;;;;;;1.98;0.88;;;-0.90;99.90;;;;;;4975797;28;20092;-74
2022/04/04 05:40:26;;;;;;;1.65;0.95;;;-0.90;99.90;;;;;;4976262;28;20073;-74
2022/04/04 05:42:54;;;;;;;0.15;0.15;;;-0.90;99.90;;;;;;4976516;28;20026;-74
2022/04/04 05:45:20;;;;;;;0.05;0.05;;;-0.90;99.90;;;;;;4976024;28;20035;-73
2022/04/04 05:47:45;;;;;;;0.22;0.22;;;-0.90;99.90;;;;;;4975241;28;20027;-73
2022/04/04 05:50:12;;;;;;;0.45;0.45;;;-0.90;99.90;;;;;;4973681;28;20023;-74
2022/04/04 05:52:37;;;;;;;0.32;0.32;;;-0.90;99.90;;;;;;4975566;28;20031;-73
2022/04/04 05:55:06;;;;;;;0.00;0.00;;;-0.90;99.90;;;;;;4975791;28;20422;-74
2022/04/04 05:57:36;;;;;;;0.00;0.00;;;-0.80;99.90;;;;;;4975227;28;20061;-73
2022/04/04 06:00:04;;;;;;;1.10;1.00;;;-0.80;99.90;;;;;;4975469;28;20035;-74
2022/04/04 06:02:35;;;;;;;5.82;1.38;;;-0.70;99.90;;;;;;4975079;28;20027;-73
2022/04/04 06:05:00;;;;;;;0.00;0.00;;;-0.70;99.90;;;;;;4973844;28;20360;-74
2022/04/04 06:07:26;;;;;;;0.00;0.00;;;-0.60;99.90;;;;;;4973000;28;20033;-75
2022/04/04 06:09:52;;;;;;;0.80;0.55;;;-0.60;99.90;;;;;;4975032;28;20041;-75
2022/04/04 06:12:17;;;;;;;0.38;0.25;;;-0.60;99.90;;;;;;4973318;28;20034;-75
2022/04/04 06:14:43;;;;;;;0.10;0.10;;;-0.50;99.90;;;;;;4972893;28;20034;-74
2022/04/04 06:17:08;;;;;;;0.08;0.08;;;-0.50;99.90;;;;;;4971766;28;20070;-74
2022/04/04 06:19:35;;;;;;;3.33;0.80;;;-0.40;99.90;;;;;;4973661;28;20414;-75
2022/04/04 06:22:03;;;;;;;0.00;0.00;;;-0.30;99.90;;;;;;4974034;28;20073;-74
2022/04/04 06:24:30;;;;;;;0.40;0.40;;;-0.20;99.90;;;;;;4971517;28;20467;-74
2022/04/04 06:27:00;;;;;;;2.03;0.93;;;-0.10;99.90;;;;;;4972276;28;20062;-76
2022/04/04 06:29:26;;;;;;;0.15;0.15;;;0.00;99.90;;;;;;4973242;28;20063;-75
2022/04/04 06:31:52;;;;;;;0.32;0.20;;;0.10;99.90;;;;;;4973623;28;20500;-78
2022/04/04 06:34:19;;;;;;;0.00;0.00;;;0.20;99.90;;;;;;4972678;28;20031;-82
2022/04/04 06:36:46;;;;;;;0.30;0.30;;;0.30;99.90;;;;;;4973818;28;20122;-76
2022/04/04 06:39:12;;;;;;;0.00;0.00;;;0.40;99.90;;;;;;4968924;28;20490;-77
2022/04/04 06:41:38;;;;;;;50.95;1.55;;;0.50;99.90;;;;;;4972251;28;20065;-76
2022/04/04 06:44:04;;;;;;;0.30;0.30;;;0.50;99.90;;;;;;4972190;28;20442;-77
2022/04/04 06:46:30;;;;;;;0.20;0.20;;;0.60;99.90;;;;;;4972347;28;20058;-81
2022/04/04 06:48:56;;;;;;;0.00;0.00;;;0.70;99.90;;;;;;4971132;28;20023;-80
2022/04/04 06:51:22;;;;;;;0.30;0.30;;;0.80;99.90;;;;;;4962225;28;20383;-75
2022/04/04 06:53:47;;;;;;;0.00;0.00;;;0.90;99.90;;;;;;4972654;28;20027;-75
2022/04/04 06:56:13;;;;;;;0.45;0.45;;;1.00;99.90;;;;;;4971581;28;20051;-75
2022/04/04 06:58:39;;;;;;;1.13;0.43;;;1.10;99.90;;;;;;4968156;28;20043;-75
2022/04/04 07:01:05;;;;;;;0.28;0.28;;;1.20;99.90;;;;;;4970837;28;20572;-76
2022/04/04 07:03:31;;;;;;;1.50;1.13;;;1.30;99.90;;;;;;4969069;28;20497;-75
2022/04/04 07:05:56;;;;;;;1.58;0.82;;;1.40;99.90;;;;;;4972205;28;20034;-81
2022/04/04 07:08:22;;;;;;;0.20;0.20;;;1.50;99.90;;;;;;4972692;28;20133;-77
2022/04/04 07:10:48;;;;;;;0.20;0.20;;;1.70;99.90;;;;;;4987266;28;20023;-83
2022/04/04 07:13:15;;;;;;;0.00;0.00;;;1.80;99.90;;;;;;4970419;28;20023;-77
2022/04/04 07:15:41;;;;;;;0.10;0.10;;;2.00;99.90;;;;;;4969776;28;20391;-83
2022/04/04 07:18:08;;;;;;;14.55;1.80;;;2.10;99.90;;;;;;4968102;28;20030;-77
2022/04/04 07:20:34;;;;;;;0.00;0.00;;;2.20;99.90;;;;;;4969458;28;20038;-77
2022/04/04 07:23:00;;;;;;;0.40;0.40;;;2.40;99.90;;;;;;4972078;28;20039;-77
2022/04/04 07:25:28;;;;;;;0.10;0.10;;;2.50;99.90;;;;;;4966687;28;20527;-77
2022/04/04 07:27:54;;;;;;;0.05;0.05;;;2.70;99.90;;;;;;4972229;28;20054;-80
2022/04/04 07:30:20;;;;;;;0.00;0.00;;;2.90;99.90;;;;;;4971759;28;20136;-77
2022/04/04 07:32:48;;;;;;;0.20;0.20;;;3.10;99.90;;;;;;4970318;28;20030;-77
2022/04/04 07:35:13;;;;;;;0.00;0.00;;;3.30;99.90;;;;;;4969247;28;20166;-82
2022/04/04 07:37:40;;;;;;;0.00;0.00;;;3.40;99.90;;;;;;4971858;28;20504;-77
2022/04/04 07:40:10;;;;;;;0.40;0.22;;;3.70;99.90;;;;;;4970465;28;20112;-76
2022/04/04 07:42:37;;;;;;;0.15;0.15;;;3.90;99.90;;;;;;4970742;28;20066;-75
2022/04/04 07:45:03;;;;;;;0.38;0.38;;;4.10;99.90;;;;;;4971135;28;20101;-75
2022/04/04 07:47:28;;;;;;;0.08;0.08;;;4.40;99.90;;;;;;4971603;28;20039;-75
2022/04/04 07:49:55;;;;;;;0.00;0.00;;;4.50;99.90;;;;;;4973793;28;20019;-76
2022/04/04 07:52:20;;;;;;;0.20;0.20;;;5.60;99.90;;;;;;4970527;28;20470;-81
2022/04/04 07:54:46;;;;;;;0.20;0.15;;;8.60;99.90;;;;;;4969879;28;20043;-81
2022/04/04 07:57:12;;;;;;;8.25;1.63;;;11.50;98.50;;;;;;4971783;28;20130;-76
2022/04/04 07:59:37;;;;;;;0.85;0.73;;;13.00;94.30;;;;;;4986321;28;20023;-76
2022/04/04 08:02:03;;;;;;;3.40;0.75;;;13.70;92.10;;;;;;4969198;28;20081;-77
2022/04/04 08:04:29;;;;;;;0.98;0.50;;;14.90;91.20;;;;;;4969313;28;20031;-81
2022/04/04 08:06:55;;;;;;;3.88;0.80;;;15.60;89.00;;;;;;4969334;28;20034;-77
2022/04/04 08:09:20;;;;;;;2.65;0.35;;;15.90;86.20;;;;;;4969470;28;20086;-77
2022/04/04 08:11:46;;;;;;;0.85;0.50;;;16.50;85.10;;;;;;4968321;28;20549;-81
2022/04/04 08:14:12;;;;;;;1.10;1.00;;;17.60;80.30;;;;;;4973511;28;20027;-77
2022/04/04 08:16:38;;;;;;;1.23;0.93;;;17.70;79.10;;;;;;4975561;28;20031;-81
2022/04/04 08:19:04;;;;;;;1.95;1.13;;;18.00;79.70;;;;;;4974920;28;20039;-81
2022/04/04 08:21:30;;;;;;;0.98;0.93;;;18.30;78.80;;;;;;4978231;28;20062;-78
2022/04/04 08:23:56;;;;;;;1.35;1.20;;;18.90;77.20;;;;;;4977437;28;20027;-78
2022/04/04 08:26:22;;;;;;;0.95;0.60;;;19.20;76.20;;;;;;4971246;28;20042;-81
2022/04/04 08:28:47;;;;;;;0.60;0.60;;;18.90;75.50;;;;;;4977823;28;20027;-78
2022/04/04 08:31:13;;;;;;;0.82;0.68;;;19.30;74.30;;;;;;4977530;28;20093;-78
2022/04/04 08:33:39;;;;;;;2.88;0.77;;;19.40;73.60;;;;;;4977989;28;20170;-78
2022/04/04 08:36:05;;;;;;;2.97;1.05;;;19.10;73.20;;;;;;4976753;28;20031;-77
2022/04/04 08:38:31;;;;;;;1.63;1.00;;;19.60;73.00;;;;;;4975668;28;20068;-81
2022/04/04 08:41:06;;;;;;;3.20;0.88;;;20.10;72.40;;;;;;4976472;28;20034;-81
2022/04/04 08:43:37;;;;;;;4.03;1.40;;;20.50;72.00;;;;;;4975740;28;20019;-80
2022/04/04 08:46:06;;;;;;;2.92;1.75;;;19.90;72.40;;;;;;4974505;28;20042;-77
2022/04/04 08:48:33;;;;;;;0.57;0.57;;;18.20;73.70;;;;;;4974939;28;20023;-77
2022/04/04 08:50:59;;;;;;;0.95;0.90;;;18.50;74.50;;;;;;4975801;28;20018;-80
2022/04/04 08:53:25;;;;;;;1.33;1.23;;;18.50;72.70;;;;;;4977170;28;20077;-77
2022/04/04 08:55:51;;;;;;;1.27;0.85;;;19.20;72.60;;;;;;4977222;28;20055;-80
2022/04/04 08:58:17;;;;;;;1.88;1.73;;;19.50;72.00;;;;;;4977436;28;20042;-80
2022/04/04 09:00:43;;;;;;;0.68;0.68;;;20.30;70.70;;;;;;4977201;28;20150;-78
2022/04/04 09:03:09;;;;;;;1.33;0.80;;;21.00;68.50;;;;;;4977328;28;20037;-78
2022/04/04 09:05:56;;;;;;;1.23;0.98;;;21.50;67.80;;;;;;4975854;28;20022;-79
2022/04/04 09:08:23;;;;;;;1.27;0.98;;;21.50;67.20;;;;;;4977091;28;20046;-78
2022/04/04 09:10:53;;;;;;;2.17;1.10;;;20.60;67.60;;;;;;4976679;28;20027;-79
2022/04/04 09:13:20;;;;;;;4.15;1.02;;;20.50;67.80;;;;;;4976161;28;20039;-78
2022/04/04 09:16:02;;;;;;;1.75;1.08;;;20.90;67.00;;;;;;4977261;28;20031;-80
2022/04/04 09:18:37;;;;;;;9.98;0.88;;;20.90;65.90;;;;;;4974566;28;20027;-78
2022/04/04 09:21:12;;;;;;;1.48;0.98;;;21.00;64.80;;;;;;4977253;28;20034;-78
2022/04/04 09:23:48;;;;;;;2.85;0.75;;;21.20;64.20;;;;;;4976880;28;20034;-79
2022/04/04 09:26:36;;;;;;;0.50;0.50;;;21.10;63.70;;;;;;4972995;28;20027;-78
2022/04/04 09:29:16;;;;;;;1.88;1.10;;;20.10;67.20;;;;;;4974145;28;20050;-78
2022/04/04 09:32:05;;;;;;;1.63;0.95;;;21.50;64.80;;;;;;4955294;28;20479;-78
2022/04/04 09:35:02;;;;;;;0.75;0.52;;;22.30;62.20;;;;;;4970149;28;20022;-78
2022/04/04 09:37:32;;;;;;;0.88;0.80;;;22.90;59.10;;;;;;4973101;28;20030;-78
2022/04/04 09:40:07;;;;;;;0.60;0.60;;;22.00;60.20;;;;;;4972420;28;20521;-78
2022/04/04 09:42:33;;;;;;;1.00;0.57;;;21.50;61.60;;;;;;4963866;28;20537;-76
2022/04/04 09:45:02;;;;;;;0.60;0.45;;;22.40;61.10;;;;;;4973384;28;20043;-76
2022/04/04 09:47:50;;;;;;;0.85;0.52;;;22.30;58.50;;;;;;4969105;28;20055;-76
2022/04/04 09:50:36;;;;;;;0.68;0.63;;;22.80;57.90;;;;;;4964070;28;20081;-76
2022/04/04 09:53:07;;;;;;;3.20;0.98;;;22.50;58.60;;;;;;4971211;28;20055;-77
2022/04/04 09:55:37;;;;;;;0.60;0.35;;;22.60;54.60;;;;;;4972989;28;20042;-75
2022/04/04 09:58:06;;;;;;;0.68;0.68;;;21.90;54.30;;;;;;4973401;28;20050;-77
2022/04/04 10:00:34;;;;;;;1.38;0.40;;;19.80;55.90;;;;;;4972755;28;20085;-78
2022/04/04 10:03:01;;;;;;;0.38;0.38;;;18.10;57.70;;;;;;4973766;28;20055;-77
2022/04/04 10:05:28;;;;;;;0.47;0.20;;;15.60;59.40;;;;;;4973353;28;20493;-76
2022/04/04 10:07:58;;;;;;;0.20;0.20;;;13.40;65.40;;;;;;4973358;28;20030;-76
2022/04/04 10:10:26;;;;;;;7.38;1.55;;;13.40;63.90;;;;;;4973226;28;20101;-76
2022/04/04 10:12:53;;;;;;;4.63;1.90;;;14.00;64.30;;;;;;4973011;28;20055;-79
2022/04/04 10:15:20;;;;;;;1.45;0.50;;;14.70;62.50;;;;;;4973425;28;20049;-77
2022/04/04 10:17:46;;;;;;;1.58;0.75;;;16.20;61.00;;;;;;4973263;28;20114;-77
2022/04/04 10:20:12;;;;;;;3.38;0.70;;;17.70;59.30;;;;;;4973142;28;20029;-78
2022/04/04 10:22:38;;;;;;;1.60;0.40;;;18.50;58.60;;;;;;4973051;28;20569;-78
2022/04/04 10:25:07;;;;;;;0.65;0.30;;;18.70;60.30;;;;;;4965254;28;20031;-77
2022/04/04 10:27:35;;;;;;;3.53;0.50;;;18.40;58.70;;;;;;4962388;28;20042;-79
2022/04/04 10:30:06;;;;;;;4.68;0.30;;;16.40;60.10;;;;;;4952635;28;20486;-77
2022/04/04 10:32:32;;;;;;;1.02;0.30;;;15.90;62.40;;;;;;4973235;28;20035;-80
2022/04/04 10:35:11;;;;;;;0.47;0.47;;;16.80;61.50;;;;;;4970379;28;20030;-78
2022/04/04 10:37:44;;;;;;;0.40;0.20;;;16.90;62.40;;;;;;4967756;28;20030;-78
2022/04/04 10:40:18;;;;;;;1.27;0.63;;;16.20;60.30;;;;;;4957448;28;20498;-77
2022/04/04 10:42:46;;;;;;;0.40;0.30;;;15.30;62.60;;;;;;4952839;28;20038;-77
2022/04/04 10:45:15;;;;;;;0.00;0.00;;;14.90;64.30;;;;;;4970802;28;20042;-80
2022/04/04 10:47:44;;;;;;;0.63;0.63;;;14.50;64.20;;;;;;4968339;28;20476;-76
2022/04/04 10:50:42;;;;;;;0.82;0.55;;;14.30;64.50;;;;;;4959213;28;20030;-77
2022/04/04 10:53:08;;;;;;;2.13;0.88;;;14.50;64.50;;;;;;4958090;28;20045;-77
2022/04/04 10:55:36;;;;;;;0.90;0.82;;;14.00;68.60;;;;;;4963603;28;20407;-80
2022/04/04 10:58:19;;;;;;;1.05;0.52;;;13.70;68.60;;;;;;4977376;28;20030;-80
2022/04/04 11:01:03;;;;;;;0.25;0.25;;;13.20;68.80;;;;;;4956853;28;20310;-76
2022/04/04 11:03:34;;;;;;;0.35;0.30;;;12.60;69.30;;;;;;4960147;28;20042;-76
2022/04/04 11:08:59;;;;;;;0.35;0.30;;;12.90;69.80;;;;;;4970122;28;20049;-77
2022/04/04 11:11:54;;;;;;;1.55;0.32;;;13.50;66.10;;;;;;4973158;28;20030;-76
2022/04/04 11:14:37;;;;;;;0.00;0.00;;;14.00;65.30;;;;;;4972937;28;20034;-76
2022/04/04 11:17:08;;;;;;;0.10;0.10;;;13.90;65.80;;;;;;4969780;28;20026;-76
2022/04/04 11:20:21;;;;;;;0.70;0.28;;;14.00;64.20;;;;;;4971908;28;20584;-80
2022/04/04 11:22:46;;;;;;;0.30;0.03;;;13.80;66.00;;;;;;4972441;28;20079;-76
2022/04/04 11:25:17;;;;;;;2.42;0.60;;;14.10;67.10;;;;;;4972082;28;20035;-76
2022/04/04 11:27:48;;;;;;;0.20;0.20;;;13.90;64.50;;;;;;4970680;28;20406;-76
2022/04/04 11:30:16;;;;;;;0.25;0.20;;;13.80;64.70;;;;;;4972056;28;20034;-76
2022/04/04 11:32:43;;;;;;;0.00;0.00;;;13.70;67.40;;;;;;4971941;28;20094;-81
2022/04/04 11:35:10;;;;;;;3.70;0.77;;;13.80;66.40;;;;;;4972089;28;20556;-76
2022/04/04 11:37:46;;;;;;;0.05;0.05;;;14.30;65.30;;;;;;4971861;28;20027;-76
2022/04/04 11:40:14;;;;;;;0.08;0.08;;;14.30;65.50;;;;;;4970070;28;20058;-76
2022/04/04 11:42:45;;;;;;;0.43;0.43;;;14.30;66.10;;;;;;4971867;28;20445;-76
2022/04/04 11:45:16;;;;;;;0.03;0.03;;;14.40;66.10;;;;;;4971783;28;20058;-80
2022/04/04 11:47:55;;;;;;;2.08;0.22;;;14.10;66.60;;;;;;4971642;28;20026;-80
2022/04/04 11:50:24;;;;;;;0.00;0.00;;;14.10;66.70;;;;;;4966143;28;20153;-76
2022/04/04 11:52:55;;;;;;;3.28;0.35;;;14.10;66.70;;;;;;4985960;28;20033;-81
2022/04/04 11:55:22;;;;;;;11.27;1.05;;;14.00;70.20;;;;;;4970782;28;20514;-76
2022/04/04 11:57:49;;;;;;;0.00;0.00;;;12.90;66.30;;;;;;4970229;28;20510;-75
2022/04/04 12:00:23;;;;;;;0.00;0.00;;;12.10;67.30;;;;;;4970013;28;20423;-76
2022/04/04 12:02:49;;;;;;;0.00;0.00;;;12.30;67.70;;;;;;4971303;28;20113;-76
2022/04/04 12:05:21;;;;;;;0.08;0.08;;;12.30;67.30;;;;;;4970962;28;20062;-75
2022/04/04 12:07:49;;;;;;;0.00;0.00;;;12.20;70.40;;;;;;4971675;28;20054;-80
2022/04/04 12:10:31;;;;;;;0.52;0.28;;;12.20;67.90;;;;;;4970641;28;20019;-80
2022/04/04 12:13:19;;;;;;;0.00;0.00;;;12.10;67.60;;;;;;4992085;28;20019;-79
2022/04/04 12:15:46;;;;;;;0.00;0.00;;;12.30;68.50;;;;;;4985953;28;20039;-80
2022/04/04 12:18:19;;;;;;;0.15;0.08;;;12.60;68.00;;;;;;4978691;28;20031;-78
2022/04/04 12:20:47;;;;;;;0.00;0.00;;;12.60;67.30;;;;;;4980373;28;20030;-76
2022/04/04 12:26:10;;;;;;;0.10;0.10;;;12.70;67.80;;;;;;4977042;28;20065;-80
2022/04/04 12:28:39;;;;;;;0.00;0.00;;;12.70;68.50;;;;;;4969599;28;20035;-76
2022/04/04 12:31:12;;;;;;;5.88;1.42;;;12.90;67.80;;;;;;4973968;28;20058;-76
2022/04/04 12:33:38;;;;;;;0.30;0.30;;;13.00;69.30;;;;;;4972410;28;20434;-76
2022/04/04 12:36:04;;;;;;;0.00;0.00;;;13.30;70.80;;;;;;4972114;28;20074;-76
2022/04/04 12:38:30;;;;;;;2.13;0.30;;;13.40;68.10;;;;;;4972425;28;20039;-80
2022/04/04 12:41:15;;;;;;;0.00;0.00;;;13.00;67.50;;;;;;4973505;28;20134;-76
2022/04/04 12:44:03;;;;;;;0.45;0.15;;;12.80;68.70;;;;;;4971949;28;20034;-76
2022/04/04 12:46:32;;;;;;;3.30;1.10;;;12.30;69.00;;;;;;4971211;28;20041;-75
2022/04/04 12:49:15;;;;;;;0.25;0.00;;;12.10;68.40;;;;;;4971051;28;20045;-75
2022/04/04 12:51:56;;;;;;;0.52;0.08;;;12.10;68.00;;;;;;4969787;28;20502;-75
2022/04/04 12:54:34;;;;;;;0.10;0.03;;;12.30;69.70;;;;;;4969725;28;20047;-76
2022/04/04 12:57:02;;;;;;;2.05;1.40;;;12.10;69.60;;;;;;4969531;28;20433;-80
2022/04/04 12:59:28;;;;;;;0.00;0.00;;;12.00;72.60;;;;;;4967844;28;20038;-76
2022/04/04 13:02:11;;;;;;;0.35;0.32;;;11.90;70.90;;;;;;4974761;28;20057;-75
2022/04/04 13:04:38;;;;;;;0.00;0.00;;;11.80;72.80;;;;;;4970642;28;20624;-77
2022/04/04 13:07:13;;;;;;;0.00;0.00;;;11.70;74.50;;;;;;4975601;28;20057;-76